Time;durP1;ratioP1;P1;durP2;ratioP2;P2;SDS_P1;SDS_P2;PMS_P1;PMS_P2;Temp;Humidity;BMP_temperature;BMP_pressure;BME280_temperature;BME280_humidity;BME280_pressure;Samples;Min_cycle;Max_cycle;Signal;HPM_P1;HPM_P2
2022/04/14 00:02:07;;;;;;;;;;;;;;;;;;5056559;28;20280;-86
2022/04/14 00:04:35;;;;;;;;;;;;;;;;;;5056359;28;19909;-86
2022/04/14 00:07:00;;;;;;;;;;;;;;;;;;5055379;28;20433;-86
2022/04/14 00:09:25;;;;;;;;;;;;;;;;;;5055230;28;19909;-86
2022/04/14 00:11:50;;;;;;;;;;;;;;;;;;5056479;28;19920;-86
2022/04/14 00:14:15;;;;;;;;;;;;;;;;;;5055160;28;19920;-86
2022/04/14 00:16:40;;;;;;;;;;;;;;;;;;5054953;28;19921;-86
2022/04/14 00:19:05;;;;;;;;;;;;;;;;;;5070018;28;19912;-86
2022/04/14 00:21:30;;;;;;;;;;;;;;;;;;5074464;28;19912;-86
2022/04/14 00:23:56;;;;;;;;;;;;;;;;;;5074976;28;19935;-86
2022/04/14 00:26:21;;;;;;;;;;;;;;;;;;5074887;28;19919;-86
2022/04/14 00:28:46;;;;;;;;;;;;;;;;;;5075041;28;20356;-86
2022/04/14 00:31:11;;;;;;;;;;;;;;;;;;5074570;28;19915;-86
2022/04/14 00:33:36;;;;;;;;;;;;;;;;;;5074618;28;19916;-86
2022/04/14 00:36:01;;;;;;;;;;;;;;;;;;5070616;28;20003;-86
2022/04/14 00:38:27;;;;;;;;;;;;;;;;;;5054709;28;20307;-86
2022/04/14 00:40:52;;;;;;;;;;;;;;;;;;5053042;28;19952;-86
2022/04/14 00:43:18;;;;;;;;;;;;;;;;;;5054607;28;19913;-86
2022/04/14 00:45:43;;;;;;;;;;;;;;;;;;5054434;28;19938;-86
2022/04/14 00:48:08;;;;;;;;;;;;;;;;;;5054500;28;19912;-86
2022/04/14 00:50:33;;;;;;;;;;;;;;;;;;5054228;28;20007;-86
2022/04/14 00:52:58;;;;;;;;;;;;;;;;;;5065342;28;20011;-86
2022/04/14 00:55:23;;;;;;;;;;;;;;;;;;5074518;28;19999;-86
2022/04/14 00:57:48;;;;;;;;;;;;;;;;;;5074507;28;19919;-87
2022/04/14 01:00:14;;;;;;;;;;;;;;;;;;5075655;28;19916;-86
2022/04/14 01:02:39;;;;;;;;;;;;;;;;;;5074289;28;19908;-86
2022/04/14 01:05:04;;;;;;;;;;;;;;;;;;5074137;28;19939;-86
2022/04/14 01:07:29;;;;;;;;;;;;;;;;;;5074036;28;19912;-86
2022/04/14 01:09:54;;;;;;;;;;;;;;;;;;5069991;28;19941;-86
2022/04/14 01:12:19;;;;;;;;;;;;;;;;;;5054083;28;19917;-86
2022/04/14 01:14:45;;;;;;;;;;;;;;;;;;5053847;28;19913;-86
2022/04/14 01:17:10;;;;;;;;;;;;;;;;;;5053923;28;20280;-86
2022/04/14 01:19:35;;;;;;;;;;;;;;;;;;5053988;28;20292;-86
2022/04/14 01:22:00;;;;;;;;;;;;;;;;;;5071494;28;20355;-86
2022/04/14 01:24:25;;;;;;;;;;;;;;;;;;5074019;28;19920;-86
2022/04/14 01:26:50;;;;;;;;;;;;;;;;;;5073680;28;20374;-86
2022/04/14 01:29:15;;;;;;;;;;;;;;;;;;5073810;28;20409;-86
2022/04/14 01:31:40;;;;;;;;;;;;;;;;;;5073749;28;19948;-86
2022/04/14 01:34:06;;;;;;;;;;;;;;;;;;5073569;28;20025;-86
2022/04/14 01:36:31;;;;;;;;;;;;;;;;;;5060339;28;19912;-86
2022/04/14 01:38:56;;;;;;;;;;;;;;;;;;5062756;28;19912;-86
2022/04/14 01:41:21;;;;;;;;;;;;;;;;;;5073195;28;19913;-86
2022/04/14 01:43:46;;;;;;;;;;;;;;;;;;5073374;28;19913;-87
2022/04/14 01:46:11;;;;;;;;;;;;;;;;;;5074684;28;20003;-86
2022/04/14 01:48:38;;;;;;;;;;;;;;;;;;5073336;28;19912;-86
2022/04/14 01:51:03;;;;;;;;;;;;;;;;;;5074446;28;20504;-86
2022/04/14 01:53:28;;;;;;;;;;;;;;;;;;5069260;28;19920;-86
2022/04/14 01:55:53;;;;;;;;;;;;;;;;;;5053253;28;19951;-86
2022/04/14 01:58:18;;;;;;;;;;;;;;;;;;5053186;28;19909;-86
2022/04/14 02:00:45;;;;;;;;;;;;;;;;;;5052487;28;20217;-86
2022/04/14 02:03:10;;;;;;;;;;;;;;;;;;5053558;28;20327;-86
2022/04/14 02:05:35;;;;;;;;;;;;;;;;;;5053004;28;20394;-87
2022/04/14 02:08:00;;;;;;;;;;;;;;;;;;5052869;28;19909;-86
2022/04/14 02:10:26;;;;;;;;;;;;;;;;;;5052842;28;19909;-86
2022/04/14 02:12:51;;;;;;;;;;;;;;;;;;5054572;28;19913;-86
2022/04/14 02:15:17;;;;;;;;;;;;;;;;;;5053994;28;20295;-86
2022/04/14 02:17:42;;;;;;;;;;;;;;;;;;5053025;28;19959;-86
2022/04/14 02:20:07;;;;;;;;;;;;;;;;;;5071441;28;19916;-86
2022/04/14 02:22:32;;;;;;;;;;;;;;;;;;5072629;28;20316;-86
2022/04/14 02:24:57;;;;;;;;;;;;;;;;;;5072488;28;20031;-86
2022/04/14 02:27:24;;;;;;;;;;;;;;;;;;5072508;28;20085;-86
2022/04/14 02:29:50;;;;;;;;;;;;;;;;;;5072578;28;19913;-86
2022/04/14 02:32:18;;;;;;;;;;;;;;;;;;5072613;28;19909;-86
2022/04/14 02:34:43;;;;;;;;;;;;;;;;;;5072231;28;19917;-87
2022/04/14 02:37:08;;;;;;;;;;;;;;;;;;5073235;28;19912;-86
2022/04/14 02:39:34;;;;;;;;;;;;;;;;;;5072507;28;19913;-87
2022/04/14 02:41:59;;;;;;;;;;;;;;;;;;5072493;28;19919;-86
2022/04/14 02:44:24;;;;;;;;;;;;;;;;;;5072562;28;20356;-86
2022/04/14 02:46:49;;;;;;;;;;;;;;;;;;5072381;28;19923;-86
2022/04/14 02:49:14;;;;;;;;;;;;;;;;;;5072264;28;19916;-86
2022/04/14 02:51:39;;;;;;;;;;;;;;;;;;5068803;28;20275;-86
2022/04/14 02:54:04;;;;;;;;;;;;;;;;;;5069490;28;20368;-86
2022/04/14 02:56:29;;;;;;;;;;;;;;;;;;5072320;28;19912;-86
2022/04/14 02:58:54;;;;;;;;;;;;;;;;;;5072150;28;19908;-86
2022/04/14 03:01:19;;;;;;;;;;;;;;;;;;5062622;28;19924;-86
2022/04/14 03:03:45;;;;;;;;;;;;;;;;;;5051395;28;19915;-87
2022/04/14 03:06:10;;;;;;;;;;;;;;;;;;5052059;28;19912;-86
2022/04/14 03:08:35;;;;;;;;;;;;;;;;;;5052245;28;19913;-86
2022/04/14 03:11:00;;;;;;;;;;;;;;;;;;5065622;28;20364;-87
2022/04/14 03:13:25;;;;;;;;;;;;;;;;;;5053096;28;19917;-87
2022/04/14 03:15:51;;;;;;;;;;;;;;;;;;5052067;28;19916;-87
2022/04/14 03:18:16;;;;;;;;;;;;;;;;;;5053453;28;19909;-87
2022/04/14 03:20:41;;;;;;;;;;;;;;;;;;5051851;28;19916;-86
2022/04/14 03:23:06;;;;;;;;;;;;;;;;;;5052102;28;20364;-86
2022/04/14 03:25:31;;;;;;;;;;;;;;;;;;5051901;28;19974;-85
2022/04/14 03:27:56;;;;;;;;;;;;;;;;;;5063962;28;19912;-86
2022/04/14 03:30:21;;;;;;;;;;;;;;;;;;5071797;28;19971;-86
2022/04/14 03:32:47;;;;;;;;;;;;;;;;;;5072022;28;19909;-86
2022/04/14 03:35:12;;;;;;;;;;;;;;;;;;5072610;28;20272;-86
2022/04/14 03:37:37;;;;;;;;;;;;;;;;;;5071890;28;19913;-86
2022/04/14 03:40:02;;;;;;;;;;;;;;;;;;5071725;28;20383;-86
2022/04/14 03:42:27;;;;;;;;;;;;;;;;;;5071783;28;19909;-86
2022/04/14 03:44:52;;;;;;;;;;;;;;;;;;5067900;28;19913;-86
2022/04/14 03:47:17;;;;;;;;;;;;;;;;;;5051451;28;20364;-86
2022/04/14 03:49:42;;;;;;;;;;;;;;;;;;5051989;28;19916;-86
2022/04/14 03:52:08;;;;;;;;;;;;;;;;;;5051626;28;19916;-86
2022/04/14 03:54:33;;;;;;;;;;;;;;;;;;5053178;28;19913;-86
2022/04/14 03:56:58;;;;;;;;;;;;;;;;;;5053039;28;20360;-86
2022/04/14 03:59:23;;;;;;;;;;;;;;;;;;5051736;28;19913;-86
2022/04/14 04:01:48;;;;;;;;;;;;;;;;;;5058629;28;19974;-87
2022/04/14 04:04:13;;;;;;;;;;;;;;;;;;5085149;28;19913;-86
2022/04/14 04:06:38;;;;;;;;;;;;;;;;;;5085077;28;19950;-86
2022/04/14 04:09:03;;;;;;;;;;;;;;;;;;5085198;28;19955;-86
2022/04/14 04:11:28;;;;;;;;;;;;;;;;;;5085132;28;19905;-87
2022/04/14 04:13:54;;;;;;;;;;;;;;;;;;5053493;28;19916;-86
2022/04/14 04:16:19;;;;;;;;;;;;;;;;;;5056280;28;19913;-86
2022/04/14 04:18:44;;;;;;;;;;;;;;;;;;5056485;28;20795;-87
2022/04/14 04:21:09;;;;;;;;;;;;;;;;;;5055048;28;19909;-86
2022/04/14 04:23:34;;;;;;;;;;;;;;;;;;5054962;28;19916;-86
2022/04/14 04:25:59;;;;;;;;;;;;;;;;;;5054999;28;19932;-86
2022/04/14 04:28:30;;;;;;;;;;;;;;;;;;5054933;28;20383;-87
2022/04/14 04:30:55;;;;;;;;;;;;;;;;;;5055022;28;20521;-87
2022/04/14 04:33:20;;;;;;;;;;;;;;;;;;5054871;28;20431;-87
2022/04/14 04:35:45;;;;;;;;;;;;;;;;;;5065454;28;19991;-87
2022/04/14 04:38:10;;;;;;;;;;;;;;;;;;5075913;28;20011;-86
2022/04/14 04:40:35;;;;;;;;;;;;;;;;;;5074654;28;19909;-87
2022/04/14 04:43:00;;;;;;;;;;;;;;;;;;5075967;28;19909;-86
2022/04/14 04:45:26;;;;;;;;;;;;;;;;;;5074643;28;20007;-87
2022/04/14 04:47:51;;;;;;;;;;;;;;;;;;5074657;28;19923;-87
2022/04/14 04:50:16;;;;;;;;;;;;;;;;;;5074624;28;20010;-86
2022/04/14 04:52:41;;;;;;;;;;;;;;;;;;5070389;28;19963;-86
2022/04/14 04:55:06;;;;;;;;;;;;;;;;;;5054380;28;20011;-86
2022/04/14 04:57:31;;;;;;;;;;;;;;;;;;5054207;28;20008;-86
2022/04/14 04:59:56;;;;;;;;;;;;;;;;;;5054388;28;20011;-86
2022/04/14 05:02:21;;;;;;;;;;;;;;;;;;5069574;28;19912;-86
2022/04/14 05:04:46;;;;;;;;;;;;;;;;;;5074097;28;19912;-86
2022/04/14 05:07:12;;;;;;;;;;;;;;;;;;5074151;28;19909;-86
2022/04/14 05:09:37;;;;;;;;;;;;;;;;;;5073993;28;19908;-87
2022/04/14 05:12:03;;;;;;;;;;;;;;;;;;5074150;28;20245;-86
2022/04/14 05:14:28;;;;;;;;;;;;;;;;;;5073957;28;19912;-86
2022/04/14 05:16:53;;;;;;;;;;;;;;;;;;5069826;28;20421;-86
2022/04/14 05:19:18;;;;;;;;;;;;;;;;;;5053996;28;19920;-87
2022/04/14 05:21:45;;;;;;;;;;;;;;;;;;5053773;28;19916;-87
2022/04/14 05:24:10;;;;;;;;;;;;;;;;;;5053618;28;20364;-86
2022/04/14 05:26:35;;;;;;;;;;;;;;;;;;5053196;28;19917;-87
2022/04/14 05:29:00;;;;;;;;;;;;;;;;;;5053750;28;19955;-87
2022/04/14 05:31:25;;;;;;;;;;;;;;;;;;5053873;28;19959;-87
2022/04/14 05:33:50;;;;;;;;;;;;;;;;;;5065026;28;19977;-87
2022/04/14 05:36:15;;;;;;;;;;;;;;;;;;5075034;28;19912;-87
2022/04/14 05:38:40;;;;;;;;;;;;;;;;;;5073372;28;20458;-87
2022/04/14 05:41:06;;;;;;;;;;;;;;;;;;5073411;28;19908;-87
2022/04/14 05:43:31;;;;;;;;;;;;;;;;;;5073677;28;19916;-87
2022/04/14 05:45:56;;;;;;;;;;;;;;;;;;5073509;28;19961;-86
2022/04/14 05:48:21;;;;;;;;;;;;;;;;;;5073457;28;20310;-87
2022/04/14 05:50:46;;;;;;;;;;;;;;;;;;5069301;28;19921;-86
2022/04/14 05:53:11;;;;;;;;;;;;;;;;;;5053132;28;20360;-86
2022/04/14 05:55:37;;;;;;;;;;;;;;;;;;5053266;28;19912;-86
2022/04/14 05:58:02;;;;;;;;;;;;;;;;;;5053410;28;19909;-87
2022/04/14 06:00:27;;;;;;;;;;;;;;;;;;5055706;28;19912;-87
2022/04/14 06:02:52;;;;;;;;;;;;;;;;;;5055271;28;20387;-87
2022/04/14 06:05:17;;;;;;;;;;;;;;;;;;5061931;28;20348;-87
2022/04/14 06:07:42;;;;;;;;;;;;;;;;;;5062374;28;20355;-87
2022/04/14 06:10:07;;;;;;;;;;;;;;;;;;5052743;28;19909;-87
2022/04/14 06:12:32;;;;;;;;;;;;;;;;;;5060993;28;19920;-87
2022/04/14 06:14:57;;;;;;;;;;;;;;;;;;5089890;28;19931;-87
2022/04/14 06:17:23;;;;;;;;;;;;;;;;;;5077712;28;19912;-87
2022/04/14 06:19:48;;;;;;;;;;;;;;;;;;5054602;28;19917;-86
2022/04/14 06:22:13;;;;;;;;;;;;;;;;;;5071836;28;19913;-86
2022/04/14 06:24:38;;;;;;;;;;;;;;;;;;5070372;28;19986;-86
2022/04/14 06:27:03;;;;;;;;;;;;;;;;;;5064879;28;20061;-87
2022/04/14 06:29:28;;;;;;;;;;;;;;;;;;5072501;28;20014;-86
2022/04/14 06:31:53;;;;;;;;;;;;;;;;;;5066920;28;19919;-86
2022/04/14 06:34:18;;;;;;;;;;;;;;;;;;5071491;28;19916;-86
2022/04/14 06:36:44;;;;;;;;;;;;;;;;;;5068434;28;19913;-87
2022/04/14 06:39:12;;;;;;;;;;;;;;;;;;5070982;28;20287;-87
2022/04/14 06:41:37;;;;;;;;;;;;;;;;;;5073326;28;19953;-86
2022/04/14 06:44:02;;;;;;;;;;;;;;;;;;5071821;28;19954;-86
2022/04/14 06:46:29;;;;;;;;;;;;;;;;;;5070772;28;19970;-86
2022/04/14 06:48:54;;;;;;;;;;;;;;;;;;5067951;28;19913;-87
2022/04/14 06:51:19;;;;;;;;;;;;;;;;;;5060755;28;20330;-87
2022/04/14 06:53:46;;;;;;;;;;;;;;;;;;5071727;28;19939;-87
2022/04/14 06:56:12;;;;;;;;;;;;;;;;;;5072080;28;19913;-87
2022/04/14 06:58:37;;;;;;;;;;;;;;;;;;5072154;28;19908;-87
2022/04/14 07:01:02;;;;;;;;;;;;;;;;;;5071098;28;19912;-87
2022/04/14 07:03:27;;;;;;;;;;;;;;;;;;5069652;28;19916;-87
2022/04/14 07:05:54;;;;;;;;;;;;;;;;;;5071483;28;19917;-86
2022/04/14 07:08:19;;;;;;;;;;;;;;;;;;5067750;28;19943;-87
2022/04/14 07:10:44;;;;;;;;;;;;;;;;;;5055343;28;19913;-86
2022/04/14 07:13:10;;;;;;;;;;;;;;;;;;5065117;28;20054;-87
2022/04/14 07:15:35;;;;;;;;;;;;;;;;;;5067055;28;20382;-87
2022/04/14 07:18:01;;;;;;;;;;;;;;;;;;5066731;28;20400;-87
2022/04/14 07:20:29;;;;;;;;;;;;;;;;;;5059611;28;19913;-87
2022/04/14 07:22:54;;;;;;;;;;;;;;;;;;5065496;28;19913;-87
2022/04/14 07:25:21;;;;;;;;;;;;;;;;;;5069511;28;19918;-87
2022/04/14 07:27:46;;;;;;;;;;;;;;;;;;5072568;28;19909;-87
2022/04/14 07:30:12;;;;;;;;;;;;;;;;;;5066107;28;19920;-87
2022/04/14 07:32:37;;;;;;;;;;;;;;;;;;5067692;28;19908;-87
2022/04/14 07:35:03;;;;;;;;;;;;;;;;;;5065101;28;20359;-87
2022/04/14 07:37:28;;;;;;;;;;;;;;;;;;5067749;28;19964;-87
2022/04/14 07:39:54;;;;;;;;;;;;;;;;;;5057893;28;19923;-87
2022/04/14 07:42:19;;;;;;;;;;;;;;;;;;5068880;28;19913;-86
2022/04/14 07:44:44;;;;;;;;;;;;;;;;;;5070169;28;19912;-87
2022/04/14 07:47:09;;;;;;;;;;;;;;;;;;5066773;28;20294;-86
2022/04/14 07:49:34;;;;;;;;;;;;;;;;;;5066983;28;19923;-87
2022/04/14 07:51:59;;;;;;;;;;;;;;;;;;5071934;28;19915;-86
2022/04/14 07:54:24;;;;;;;;;;;;;;;;;;5085597;28;19923;-87
2022/04/14 07:56:49;;;;;;;;;;;;;;;;;;5071485;28;20334;-86
2022/04/14 07:59:14;;;;;;;;;;;;;;;;;;5083205;28;19908;-87
2022/04/14 08:01:40;;;;;;;;;;;;;;;;;;5066964;28;19916;-87
2022/04/14 08:04:05;;;;;;;;;;;;;;;;;;5070185;28;19913;-87
2022/04/14 08:06:31;;;;;;;;;;;;;;;;;;5069541;28;19930;-87
2022/04/14 08:08:56;;;;;;;;;;;;;;;;;;5069799;28;19917;-87
2022/04/14 08:11:21;;;;;;;;;;;;;;;;;;5071790;28;19912;-86
2022/04/14 08:13:46;;;;;;;;;;;;;;;;;;5070586;28;19920;-87
2022/04/14 08:16:12;;;;;;;;;;;;;;;;;;5071662;28;19999;-87
2022/04/14 08:18:37;;;;;;;;;;;;;;;;;;5070036;28;20372;-87
2022/04/14 08:21:02;;;;;;;;;;;;;;;;;;5073590;28;19912;-87
2022/04/14 08:23:27;;;;;;;;;;;;;;;;;;5068045;28;19913;-86
2022/04/14 08:25:52;;;;;;;;;;;;;;;;;;5063410;28;20391;-86
2022/04/14 08:28:18;;;;;;;;;;;;;;;;;;5061665;28;19912;-86
2022/04/14 08:30:44;;;;;;;;;;;;;;;;;;5067371;28;19912;-86
2022/04/14 08:33:10;;;;;;;;;;;;;;;;;;5074192;28;19912;-86
2022/04/14 08:35:35;;;;;;;;;;;;;;;;;;5060262;28;19921;-87
2022/04/14 08:38:00;;;;;;;;;;;;;;;;;;5063256;28;20003;-87
2022/04/14 08:40:25;;;;;;;;;;;;;;;;;;5068755;28;19958;-87
2022/04/14 08:42:51;;;;;;;;;;;;;;;;;;5067248;28;20398;-86
2022/04/14 08:45:16;;;;;;;;;;;;;;;;;;5073483;28;20266;-87
2022/04/14 08:47:41;;;;;;;;;;;;;;;;;;5070171;28;19916;-87
2022/04/14 08:50:06;;;;;;;;;;;;;;;;;;5067608;28;19912;-87
2022/04/14 08:52:31;;;;;;;;;;;;;;;;;;5063380;28;19912;-87
2022/04/14 08:54:56;;;;;;;;;;;;;;;;;;5071509;28;19920;-87
2022/04/14 08:57:21;;;;;;;;;;;;;;;;;;5069160;28;19920;-87
2022/04/14 08:59:47;;;;;;;;;;;;;;;;;;5069204;28;19996;-86
2022/04/14 09:02:12;;;;;;;;;;;;;;;;;;5070089;28;19912;-85
2022/04/14 09:04:38;;;;;;;;;;;;;;;;;;5071666;28;20295;-85
2022/04/14 09:07:04;;;;;;;;;;;;;;;;;;5069669;28;19959;-89
2022/04/14 09:09:29;;;;;;;;;;;;;;;;;;5072241;28;19913;-92
2022/04/14 09:11:54;;;;;;;;;;;;;;;;;;5074180;28;19912;-87
2022/04/14 09:14:21;;;;;;;;;;;;;;;;;;5069602;28;20155;-88
2022/04/14 09:16:46;;;;;;;;;;;;;;;;;;5060318;28;20316;-88
2022/04/14 09:19:11;;;;;;;;;;;;;;;;;;5054306;28;20005;-91
2022/04/14 09:21:36;;;;;;;;;;;;;;;;;;5060443;28;19912;-91
2022/04/14 09:24:01;;;;;;;;;;;;;;;;;;5073876;28;19912;-91
2022/04/14 09:26:26;;;;;;;;;;;;;;;;;;5072728;28;20359;-85
2022/04/14 09:28:52;;;;;;;;;;;;;;;;;;5073085;28;19926;-85
2022/04/14 09:31:19;;;;;;;;;;;;;;;;;;5072974;28;19923;-86
2022/04/14 09:33:44;;;;;;;;;;;;;;;;;;5062299;28;19958;-85
2022/04/14 09:36:09;;;;;;;;;;;;;;;;;;5055862;28;19952;-85
2022/04/14 09:38:35;;;;;;;;;;;;;;;;;;5070450;28;19908;-85
2022/04/14 09:41:00;;;;;;;;;;;;;;;;;;5070239;28;20390;-86
2022/04/14 09:43:26;;;;;;;;;;;;;;;;;;5066634;28;19913;-85
2022/04/14 09:45:51;;;;;;;;;;;;;;;;;;5060693;28;19959;-85
2022/04/14 09:48:18;;;;;;;;;;;;;;;;;;5067677;28;19947;-85
2022/04/14 09:50:44;;;;;;;;;;;;;;;;;;5072143;28;19912;-85
2022/04/14 09:53:09;;;;;;;;;;;;;;;;;;5066439;28;20253;-85
2022/04/14 09:55:34;;;;;;;;;;;;;;;;;;5065973;28;19920;-85
2022/04/14 09:58:00;;;;;;;;;;;;;;;;;;5064819;28;19928;-85
2022/04/14 10:00:28;;;;;;;;;;;;;;;;;;5065107;28;19920;-85
2022/04/14 10:02:53;;;;;;;;;;;;;;;;;;5070928;28;20007;-85
2022/04/14 10:05:18;;;;;;;;;;;;;;;;;;5066424;28;20332;-85
2022/04/14 10:07:43;;;;;;;;;;;;;;;;;;5067826;28;20375;-85
2022/04/14 10:10:08;;;;;;;;;;;;;;;;;;5069746;28;19916;-85
2022/04/14 10:12:33;;;;;;;;;;;;;;;;;;5073086;28;19912;-85
2022/04/14 10:14:59;;;;;;;;;;;;;;;;;;5067855;28;19962;-86
2022/04/14 10:17:24;;;;;;;;;;;;;;;;;;5066105;28;19913;-86
2022/04/14 10:19:49;;;;;;;;;;;;;;;;;;5071795;28;19920;-85
2022/04/14 10:22:14;;;;;;;;;;;;;;;;;;5068095;28;19913;-85
2022/04/14 10:24:39;;;;;;;;;;;;;;;;;;5060780;28;20326;-85
2022/04/14 10:27:04;;;;;;;;;;;;;;;;;;5072174;28;19909;-85
2022/04/14 10:29:30;;;;;;;;;;;;;;;;;;5072275;28;20291;-85
2022/04/14 10:31:55;;;;;;;;;;;;;;;;;;5072860;28;19999;-84
2022/04/14 10:34:20;;;;;;;;;;;;;;;;;;5071882;28;20004;-86
2022/04/14 10:36:45;;;;;;;;;;;;;;;;;;5068174;28;20265;-85
2022/04/14 10:39:10;;;;;;;;;;;;;;;;;;5055837;28;19938;-85
2022/04/14 10:41:36;;;;;;;;;;;;;;;;;;5070805;28;20295;-85
2022/04/14 10:44:01;;;;;;;;;;;;;;;;;;5071093;28;19912;-85
2022/04/14 10:46:26;;;;;;;;;;;;;;;;;;5073111;28;19916;-85
2022/04/14 10:48:51;;;;;;;;;;;;;;;;;;5068290;28;19942;-85
2022/04/14 10:51:16;;;;;;;;;;;;;;;;;;5052032;28;19920;-85
2022/04/14 10:53:41;;;;;;;;;;;;;;;;;;5053589;28;20285;-85
2022/04/14 10:56:06;;;;;;;;;;;;;;;;;;5069634;28;19935;-85
2022/04/14 10:58:31;;;;;;;;;;;;;;;;;;5071595;28;20414;-85
2022/04/14 11:00:56;;;;;;;;;;;;;;;;;;5073119;28;19908;-86
2022/04/14 11:03:22;;;;;;;;;;;;;;;;;;5071854;28;19909;-85
2022/04/14 11:05:47;;;;;;;;;;;;;;;;;;5072018;28;20359;-86
2022/04/14 11:08:12;;;;;;;;;;;;;;;;;;5072669;28;20015;-86
2022/04/14 11:10:37;;;;;;;;;;;;;;;;;;5060513;28;19944;-85
2022/04/14 11:13:02;;;;;;;;;;;;;;;;;;5051874;28;20003;-85
2022/04/14 11:15:27;;;;;;;;;;;;;;;;;;5053248;28;20011;-85
2022/04/14 11:17:53;;;;;;;;;;;;;;;;;;5056391;28;19932;-86
2022/04/14 11:20:18;;;;;;;;;;;;;;;;;;5072289;28;19923;-86
2022/04/14 11:22:43;;;;;;;;;;;;;;;;;;5071538;28;19908;-85
2022/04/14 11:25:08;;;;;;;;;;;;;;;;;;5074983;28;19917;-85
2022/04/14 11:27:33;;;;;;;;;;;;;;;;;;5075719;28;20015;-84
2022/04/14 11:30:00;;;;;;;;;;;;;;;;;;5075407;28;19912;-85
2022/04/14 11:32:25;;;;;;;;;;;;;;;;;;5075299;28;19950;-85
2022/04/14 11:34:50;;;;;;;;;;;;;;;;;;5076653;28;19920;-85
2022/04/14 11:37:15;;;;;;;;;;;;;;;;;;5071110;28;19912;-85
2022/04/14 11:39:40;;;;;;;;;;;;;;;;;;5066674;28;19916;-85
2022/04/14 11:42:05;;;;;;;;;;;;;;;;;;5063022;28;19913;-85
2022/04/14 11:44:32;;;;;;;;;;;;;;;;;;5073284;28;19913;-86
2022/04/14 11:46:58;;;;;;;;;;;;;;;;;;5072689;28;20011;-86
2022/04/14 11:49:23;;;;;;;;;;;;;;;;;;5075416;28;19908;-86
2022/04/14 11:51:49;;;;;;;;;;;;;;;;;;5072877;28;19916;-85
2022/04/14 11:54:14;;;;;;;;;;;;;;;;;;5072253;28;20288;-85
2022/04/14 11:56:39;;;;;;;;;;;;;;;;;;5065293;28;19930;-86
2022/04/14 11:59:08;;;;;;;;;;;;;;;;;;5081610;28;19912;-85
2022/04/14 12:01:33;;;;;;;;;;;;;;;;;;5073130;28;19916;-84
2022/04/14 12:03:58;;;;;;;;;;;;;;;;;;5070884;28;19913;-86
2022/04/14 12:06:23;;;;;;;;;;;;;;;;;;5064158;28;19965;-85
2022/04/14 12:08:48;;;;;;;;;;;;;;;;;;5073119;28;19944;-85
2022/04/14 12:11:13;;;;;;;;;;;;;;;;;;5068950;28;19971;-85
2022/04/14 12:13:38;;;;;;;;;;;;;;;;;;5061766;28;19912;-84
2022/04/14 12:16:04;;;;;;;;;;;;;;;;;;5070773;28;19917;-84
2022/04/14 12:18:29;;;;;;;;;;;;;;;;;;5070126;28;19917;-84
2022/04/14 12:20:54;;;;;;;;;;;;;;;;;;5074400;28;19921;-85
2022/04/14 12:23:19;;;;;;;;;;;;;;;;;;5074673;28;20402;-85
2022/04/14 12:25:44;;;;;;;;;;;;;;;;;;5082637;28;20432;-85
2022/04/14 12:28:09;;;;;;;;;;;;;;;;;;5059313;28;19970;-85
2022/04/14 12:30:36;;;;;;;;;;;;;;;;;;5097903;28;19999;-85
2022/04/14 12:33:01;;;;;;;;;;;;;;;;;;5074598;28;19916;-85
2022/04/14 12:35:26;;;;;;;;;;;;;;;;;;5072982;28;19913;-84
2022/04/14 12:37:54;;;;;;;;;;;;;;;;;;5074310;28;19923;-85
2022/04/14 12:40:22;;;;;;;;;;;;;;;;;;5073544;28;19961;-85
2022/04/14 12:42:48;;;;;;;;;;;;;;;;;;5070244;28;19962;-85
2022/04/14 12:45:13;;;;;;;;;;;;;;;;;;5072003;28;19912;-85
2022/04/14 12:47:38;;;;;;;;;;;;;;;;;;5073553;28;19916;-85
2022/04/14 12:50:03;;;;;;;;;;;;;;;;;;5074455;28;19912;-85
2022/04/14 12:52:28;;;;;;;;;;;;;;;;;;5069807;28;20026;-85
2022/04/14 12:54:53;;;;;;;;;;;;;;;;;;5068885;28;19916;-85
2022/04/14 12:57:19;;;;;;;;;;;;;;;;;;5074707;28;19916;-84
2022/04/14 12:59:44;;;;;;;;;;;;;;;;;;5069379;28;19991;-85
2022/04/14 13:02:09;;;;;;;;;;;;;;;;;;5056433;28;19919;-85
2022/04/14 13:04:34;;;;;;;;;;;;;;;;;;5071442;28;19974;-85
2022/04/14 13:06:59;;;;;;;;;;;;;;;;;;5073302;28;19916;-85
2022/04/14 13:09:24;;;;;;;;;;;;;;;;;;5070037;28;19913;-85
2022/04/14 13:11:50;;;;;;;;;;;;;;;;;;5055188;28;19916;-85
2022/04/14 13:14:15;;;;;;;;;;;;;;;;;;5059331;28;20044;-85
2022/04/14 13:16:40;;;;;;;;;;;;;;;;;;5070157;28;20011;-85
2022/04/14 13:19:05;;;;;;;;;;;;;;;;;;5074636;28;20049;-85
2022/04/14 13:21:30;;;;;;;;;;;;;;;;;;5070035;28;19962;-85
2022/04/14 13:23:55;;;;;;;;;;;;;;;;;;5060970;28;19982;-85
2022/04/14 13:26:20;;;;;;;;;;;;;;;;;;5054710;28;20371;-85
2022/04/14 13:28:45;;;;;;;;;;;;;;;;;;5072011;28;19918;-85
2022/04/14 13:31:10;;;;;;;;;;;;;;;;;;5069778;28;20015;-85
2022/04/14 13:33:36;;;;;;;;;;;;;;;;;;5062265;28;19920;-85
2022/04/14 13:36:01;;;;;;;;;;;;;;;;;;5064179;28;19935;-85
2022/04/14 13:38:26;;;;;;;;;;;;;;;;;;5072110;28;20326;-85
2022/04/14 13:40:51;;;;;;;;;;;;;;;;;;5073033;28;19913;-85
2022/04/14 13:43:16;;;;;;;;;;;;;;;;;;5063716;28;19913;-85
2022/04/14 13:45:41;;;;;;;;;;;;;;;;;;5055331;28;20008;-85
2022/04/14 13:48:06;;;;;;;;;;;;;;;;;;5073001;28;19909;-85
2022/04/14 13:50:34;;;;;;;;;;;;;;;;;;5058438;28;19913;-85
2022/04/14 13:53:00;;;;;;;;;;;;;;;;;;5070914;28;20392;-85
2022/04/14 13:55:25;;;;;;;;;;;;;;;;;;5069695;28;20368;-85
2022/04/14 13:57:50;;;;;;;;;;;;;;;;;;5068124;28;19916;-85
2022/04/14 14:00:18;;;;;;;;;;;;;;;;;;5071083;28;19928;-85
2022/04/14 14:02:43;;;;;;;;;;;;;;;;;;5070941;28;19913;-85
2022/04/14 14:05:09;;;;;;;;;;;;;;;;;;5067862;28;19924;-85
2022/04/14 14:07:34;;;;;;;;;;;;;;;;;;5072049;28;19913;-85
2022/04/14 14:09:59;;;;;;;;;;;;;;;;;;5072738;28;20414;-85
2022/04/14 14:12:24;;;;;;;;;;;;;;;;;;5072039;28;19912;-85
2022/04/14 14:14:49;;;;;;;;;;;;;;;;;;5069181;28;19933;-85
2022/04/14 14:17:16;;;;;;;;;;;;;;;;;;5052648;28;19909;-85
2022/04/14 14:19:41;;;;;;;;;;;;;;;;;;5057002;28;19930;-85
2022/04/14 14:22:06;;;;;;;;;;;;;;;;;;5070932;28;19912;-85
2022/04/14 14:24:32;;;;;;;;;;;;;;;;;;5071910;28;20392;-85
2022/04/14 14:26:57;;;;;;;;;;;;;;;;;;5072539;28;19909;-86
2022/04/14 14:29:22;;;;;;;;;;;;;;;;;;5072386;28;19958;-85
2022/04/14 14:31:47;;;;;;;;;;;;;;;;;;5072198;28;19952;-85
2022/04/14 14:34:13;;;;;;;;;;;;;;;;;;5071966;28;20447;-85
2022/04/14 14:36:38;;;;;;;;;;;;;;;;;;5068795;28;19920;-85
2022/04/14 14:39:03;;;;;;;;;;;;;;;;;;5060249;28;19914;-85
2022/04/14 14:41:29;;;;;;;;;;;;;;;;;;5068736;28;19917;-85
2022/04/14 14:43:56;;;;;;;;;;;;;;;;;;5060467;28;19916;-85
2022/04/14 14:46:21;;;;;;;;;;;;;;;;;;5073264;28;19939;-85
2022/04/14 14:48:47;;;;;;;;;;;;;;;;;;5072434;28;19912;-85
2022/04/14 14:51:12;;;;;;;;;;;;;;;;;;5068295;28;19920;-85
2022/04/14 14:53:37;;;;;;;;;;;;;;;;;;5069988;28;19912;-84
2022/04/14 14:56:02;;;;;;;;;;;;;;;;;;5072853;28;20320;-85
2022/04/14 15:01:11;;;;;;;;;;;;;;;;;;5073522;28;19978;-85
2022/04/14 15:03:37;;;;;;;;;;;;;;;;;;5067998;28;19920;-85
2022/04/14 15:06:02;;;;;;;;;;;;;;;;;;5071101;28;19913;-85
2022/04/14 15:08:27;;;;;;;;;;;;;;;;;;5085219;28;19909;-85
2022/04/14 15:10:52;;;;;;;;;;;;;;;;;;5071914;28;19912;-85
2022/04/14 15:13:17;;;;;;;;;;;;;;;;;;5068073;28;20343;-85
2022/04/14 15:15:48;;;;;;;;;;;;;;;;;;5069059;28;19962;-85
2022/04/14 15:18:13;;;;;;;;;;;;;;;;;;5071965;28;19939;-85
2022/04/14 15:20:38;;;;;;;;;;;;;;;;;;5072877;28;20017;-85
2022/04/14 15:23:03;;;;;;;;;;;;;;;;;;5068573;28;20409;-84
2022/04/14 15:25:28;;;;;;;;;;;;;;;;;;5070625;28;19916;-84
2022/04/14 15:27:53;;;;;;;;;;;;;;;;;;5072884;28;19995;-85
2022/04/14 15:30:19;;;;;;;;;;;;;;;;;;5071105;28;19999;-85
2022/04/14 15:32:44;;;;;;;;;;;;;;;;;;5072916;28;20342;-85
2022/04/14 15:35:09;;;;;;;;;;;;;;;;;;5071194;28;19922;-86
2022/04/14 15:37:34;;;;;;;;;;;;;;;;;;5072746;28;19970;-85
2022/04/14 15:39:59;;;;;;;;;;;;;;;;;;5071405;28;19962;-85
2022/04/14 15:42:24;;;;;;;;;;;;;;;;;;5069579;28;19909;-85
2022/04/14 15:44:49;;;;;;;;;;;;;;;;;;5070035;28;19912;-86
2022/04/14 15:47:15;;;;;;;;;;;;;;;;;;5066330;28;19917;-86
2022/04/14 15:49:40;;;;;;;;;;;;;;;;;;5066875;28;20032;-86
2022/04/14 15:52:05;;;;;;;;;;;;;;;;;;5073367;28;20003;-86
2022/04/14 15:54:30;;;;;;;;;;;;;;;;;;5067310;28;19964;-86
2022/04/14 15:56:55;;;;;;;;;;;;;;;;;;5063544;28;20007;-86
2022/04/14 15:59:20;;;;;;;;;;;;;;;;;;5071700;28;19951;-86
2022/04/14 16:01:46;;;;;;;;;;;;;;;;;;5067506;28;19920;-86
2022/04/14 16:04:12;;;;;;;;;;;;;;;;;;5064654;28;19912;-86
2022/04/14 16:06:37;;;;;;;;;;;;;;;;;;5070442;28;19912;-86
2022/04/14 16:09:04;;;;;;;;;;;;;;;;;;5070948;28;19935;-86
2022/04/14 16:14:13;;;;;;;;;;;;;;;;;;5075967;28;20397;-86
2022/04/14 16:16:39;;;;;;;;;;;;;;;;;;5070741;28;19959;-86
2022/04/14 16:19:04;;;;;;;;;;;;;;;;;;5056791;28;19913;-86
2022/04/14 16:21:29;;;;;;;;;;;;;;;;;;5054981;28;19920;-85
2022/04/14 16:23:54;;;;;;;;;;;;;;;;;;5069408;28;19913;-85
2022/04/14 16:26:19;;;;;;;;;;;;;;;;;;5074310;28;19999;-86
2022/04/14 16:28:44;;;;;;;;;;;;;;;;;;5074416;28;20382;-86
2022/04/14 16:31:09;;;;;;;;;;;;;;;;;;5070100;28;19992;-85
2022/04/14 16:33:36;;;;;;;;;;;;;;;;;;5055219;28;20007;-86
2022/04/14 16:36:01;;;;;;;;;;;;;;;;;;5060567;28;20275;-86
2022/04/14 16:38:26;;;;;;;;;;;;;;;;;;5056834;28;20360;-85